Time;durP1;ratioP1;P1;durP2;ratioP2;P2;SDS_P1;SDS_P2;PMS_P1;PMS_P2;Temp;Humidity;BMP_temperature;BMP_pressure;BME280_temperature;BME280_humidity;BME280_pressure;Samples;Min_cycle;Max_cycle;Signal;HPM_P1;HPM_P2
2022/06/18 00:01:34;;;;;;;5.90;4.97;;;22.40;66.30;;;;;;4978227;28;20487;-39
2022/06/18 00:04:06;;;;;;;7.23;4.63;;;22.40;66.40;;;;;;4981441;28;20431;-38
2022/06/18 00:06:36;;;;;;;5.50;4.07;;;22.40;66.70;;;;;;4990637;28;20439;-40
2022/06/18 00:09:04;;;;;;;4.70;3.60;;;22.30;66.40;;;;;;4992765;28;20495;-47
2022/06/18 00:14:18;;;;;;;5.50;3.80;;;22.30;66.20;;;;;;4991127;28;20565;-40
2022/06/18 00:16:45;;;;;;;6.27;4.40;;;22.20;66.40;;;;;;4992034;28;20443;-38
2022/06/18 00:19:11;;;;;;;5.80;4.47;;;22.20;66.60;;;;;;4993361;28;20449;-42
2022/06/18 00:21:38;;;;;;;6.47;5.30;;;22.20;66.20;;;;;;4993414;28;20474;-37
2022/06/18 00:24:14;;;;;;;6.57;4.00;;;22.10;66.20;;;;;;4993561;28;20458;-36
2022/06/18 00:26:41;;;;;;;5.03;3.60;;;22.10;66.30;;;;;;4992336;28;20454;-40
2022/06/18 00:29:12;;;;;;;3.87;3.57;;;22.10;66.10;;;;;;4993090;28;20455;-40
2022/06/18 00:31:44;;;;;;;9.30;7.53;;;22.10;65.90;;;;;;4992578;28;20498;-40
2022/06/18 00:34:12;;;;;;;5.40;4.20;;;22.10;66.00;;;;;;4992770;28;20445;-40
2022/06/18 00:36:42;;;;;;;7.33;4.63;;;22.10;66.30;;;;;;4992894;28;20477;-37
2022/06/18 00:39:16;;;;;;;4.63;4.20;;;22.10;66.90;;;;;;4981650;28;20455;-38
2022/06/18 00:41:45;;;;;;;4.63;4.17;;;22.10;67.20;;;;;;4989551;28;20455;-37
2022/06/18 00:44:31;;;;;;;8.27;4.77;;;22.00;67.60;;;;;;4992339;28;20475;-38
2022/06/18 00:47:09;;;;;;;7.07;4.03;;;21.90;67.50;;;;;;4991863;28;20517;-38
2022/06/18 00:49:43;;;;;;;5.40;4.03;;;21.90;66.80;;;;;;4980307;28;20538;-36
2022/06/18 00:52:19;;;;;;;6.53;5.80;;;21.80;67.60;;;;;;4989283;28;20474;-36
2022/06/18 00:54:53;;;;;;;12.77;10.80;;;21.80;68.10;;;;;;4992662;28;20431;-38
2022/06/18 00:57:28;;;;;;;5.30;4.80;;;21.80;68.10;;;;;;4975436;28;20501;-38
2022/06/18 01:00:00;;;;;;;5.63;4.77;;;21.70;68.40;;;;;;4981360;28;20500;-38
2022/06/18 01:02:34;;;;;;;7.20;5.63;;;21.60;69.70;;;;;;4982643;28;20526;-40
2022/06/18 01:05:00;;;;;;;6.37;4.57;;;21.60;68.90;;;;;;4983312;28;20434;-39
2022/06/18 01:07:33;;;;;;;7.63;3.60;;;21.60;69.60;;;;;;4992407;28;20459;-35
2022/06/18 01:10:02;;;;;;;5.20;3.87;;;21.50;70.30;;;;;;4992525;28;20502;-39
2022/06/18 01:12:30;;;;;;;8.30;6.17;;;21.50;69.50;;;;;;4990689;28;20458;-37
2022/06/18 01:15:01;;;;;;;6.80;3.57;;;21.40;68.70;;;;;;4976804;28;20534;-39
2022/06/18 01:17:30;;;;;;;11.47;10.23;;;21.40;70.40;;;;;;4991215;28;20523;-41
2022/06/18 01:19:59;;;;;;;9.53;5.30;;;21.40;70.20;;;;;;4991481;28;20481;-40
2022/06/18 01:22:39;;;;;;;4.13;3.20;;;21.30;69.20;;;;;;4990823;28;20552;-36
2022/06/18 01:25:08;;;;;;;4.27;3.00;;;21.30;68.70;;;;;;4991836;28;20439;-37
2022/06/18 01:27:36;;;;;;;4.73;4.30;;;21.30;69.80;;;;;;4991959;28;20542;-33
2022/06/18 01:30:09;;;;;;;5.80;3.87;;;21.20;70.30;;;;;;4991195;28;20447;-37
2022/06/18 01:32:36;;;;;;;7.63;4.47;;;21.20;69.20;;;;;;4991727;28;20531;-36
2022/06/18 01:35:04;;;;;;;7.40;5.10;;;21.20;69.20;;;;;;4992193;28;20440;-35
2022/06/18 01:37:35;;;;;;;7.10;4.30;;;21.20;69.60;;;;;;4991960;28;20509;-37
2022/06/18 01:40:03;;;;;;;6.73;3.43;;;21.20;69.10;;;;;;4991701;28;20519;-38
2022/06/18 01:42:37;;;;;;;3.93;3.03;;;21.20;70.00;;;;;;4992476;28;20466;-35
2022/06/18 01:45:08;;;;;;;3.80;3.40;;;21.20;70.90;;;;;;4992516;28;20499;-37
2022/06/18 01:47:40;;;;;;;4.23;3.83;;;21.10;70.20;;;;;;4991253;28;20437;-38
2022/06/18 01:50:12;;;;;;;7.60;4.00;;;21.00;71.00;;;;;;4991934;28;20503;-39
2022/06/18 01:52:44;;;;;;;4.27;3.87;;;21.00;71.10;;;;;;4992048;28;20455;-35
2022/06/18 01:55:16;;;;;;;7.17;4.57;;;20.90;69.80;;;;;;4991429;28;20491;-38
2022/06/18 01:57:49;;;;;;;5.00;4.27;;;20.90;70.20;;;;;;4991703;28;20471;-37
2022/06/18 02:00:23;;;;;;;4.57;4.17;;;20.90;70.50;;;;;;4977232;28;20439;-36
2022/06/18 02:02:51;;;;;;;6.87;4.73;;;20.90;70.40;;;;;;4993509;28;20461;-37
2022/06/18 02:05:21;;;;;;;3.90;3.60;;;20.90;70.50;;;;;;4994661;28;20423;-37
2022/06/18 02:07:49;;;;;;;8.63;3.83;;;20.90;70.60;;;;;;4993981;28;20531;-38
2022/06/18 02:10:20;;;;;;;4.57;4.13;;;20.80;70.50;;;;;;4994838;28;20434;-36
2022/06/18 02:12:49;;;;;;;6.10;3.60;;;20.80;70.70;;;;;;4994642;28;20488;-35
2022/06/18 02:15:19;;;;;;;4.90;3.17;;;20.80;70.90;;;;;;4994956;28;20418;-35
2022/06/18 02:17:46;;;;;;;4.90;3.73;;;20.70;70.80;;;;;;4993930;28;20498;-37
2022/06/18 02:20:17;;;;;;;3.60;3.30;;;20.70;70.80;;;;;;4995373;28;20467;-37
2022/06/18 02:22:46;;;;;;;4.23;3.27;;;20.60;71.00;;;;;;4993950;28;20473;-37
2022/06/18 02:25:14;;;;;;;5.17;4.03;;;20.60;70.80;;;;;;4988066;28;20475;-38
2022/06/18 02:27:42;;;;;;;3.47;3.10;;;20.60;71.10;;;;;;4990334;28;20470;-39
2022/06/18 02:30:16;;;;;;;8.40;3.57;;;20.60;71.00;;;;;;4994200;28;20463;-40
2022/06/18 02:32:56;;;;;;;5.27;3.40;;;20.60;71.00;;;;;;4994857;28;20438;-36
2022/06/18 02:35:23;;;;;;;3.90;3.57;;;20.60;71.30;;;;;;4994657;28;20478;-38
2022/06/18 02:37:54;;;;;;;5.13;3.53;;;20.50;71.80;;;;;;4992544;28;20505;-36
2022/06/18 02:40:24;;;;;;;4.10;3.63;;;20.50;72.10;;;;;;4986980;28;20471;-38
2022/06/18 02:42:57;;;;;;;13.40;4.40;;;20.50;72.30;;;;;;4988298;28;20446;-37
2022/06/18 02:45:27;;;;;;;4.47;4.03;;;20.40;72.50;;;;;;4994443;28;20454;-38
2022/06/18 02:47:57;;;;;;;3.97;3.67;;;20.40;72.70;;;;;;4993388;28;20459;-40
2022/06/18 02:50:28;;;;;;;4.23;3.73;;;20.40;72.80;;;;;;4995026;28;20469;-39
2022/06/18 02:53:00;;;;;;;4.10;3.57;;;20.40;72.90;;;;;;4994037;28;20934;-43
2022/06/18 02:55:29;;;;;;;4.37;3.53;;;20.30;73.00;;;;;;4994876;28;20582;-36
2022/06/18 02:58:01;;;;;;;4.50;3.60;;;20.30;73.70;;;;;;4994537;28;20558;-36
2022/06/18 03:00:29;;;;;;;4.30;3.90;;;20.30;73.80;;;;;;4980855;28;20427;-38
2022/06/18 03:02:56;;;;;;;5.10;3.47;;;20.20;73.80;;;;;;4994917;28;20454;-37
2022/06/18 03:05:25;;;;;;;4.70;3.33;;;20.20;74.70;;;;;;4981260;28;20443;-38
2022/06/18 03:07:52;;;;;;;3.60;3.30;;;20.20;74.00;;;;;;4991822;28;20439;-38
2022/06/18 03:13:07;;;;;;;5.97;3.27;;;20.10;74.30;;;;;;4994281;28;20415;-37
2022/06/18 03:15:36;;;;;;;4.27;3.10;;;20.10;74.30;;;;;;4993612;28;20474;-38
2022/06/18 03:18:07;;;;;;;4.30;3.60;;;20.00;74.30;;;;;;4991888;28;20479;-38
2022/06/18 03:20:58;;;;;;;5.10;3.27;;;20.00;74.70;;;;;;4980171;28;20537;-38
2022/06/18 03:23:26;;;;;;;3.90;3.50;;;19.90;74.90;;;;;;4993911;28;20450;-36
2022/06/18 03:25:58;;;;;;;3.50;3.20;;;20.00;75.20;;;;;;4994314;28;20546;-38
2022/06/18 03:28:27;;;;;;;3.10;2.80;;;19.90;75.30;;;;;;4993818;28;20449;-38
2022/06/18 03:30:55;;;;;;;5.33;4.00;;;19.90;75.40;;;;;;4979779;28;20506;-38
2022/06/18 03:33:23;;;;;;;3.87;3.20;;;19.90;75.60;;;;;;4994270;28;20503;-38
2022/06/18 03:35:51;;;;;;;3.70;3.27;;;19.90;75.80;;;;;;4993051;28;20537;-38
2022/06/18 03:38:18;;;;;;;3.13;2.77;;;19.90;76.00;;;;;;4982076;28;20471;-37
2022/06/18 03:40:45;;;;;;;4.07;3.60;;;19.90;76.00;;;;;;4993748;28;20486;-47
2022/06/18 03:43:14;;;;;;;3.20;2.90;;;19.90;76.20;;;;;;4993627;28;20475;-38
2022/06/18 03:45:48;;;;;;;4.53;3.27;;;19.90;76.10;;;;;;4993910;28;20493;-37
2022/06/18 03:48:22;;;;;;;2.80;2.60;;;19.90;76.50;;;;;;4993727;28;20469;-37
2022/06/18 03:50:49;;;;;;;4.70;2.90;;;19.90;76.60;;;;;;4992483;28;20478;-39
2022/06/18 03:53:16;;;;;;;4.40;2.63;;;19.90;76.80;;;;;;4993123;28;20948;-37
2022/06/18 03:55:43;;;;;;;5.03;3.03;;;19.90;76.80;;;;;;4993077;28;20459;-39
2022/06/18 03:58:15;;;;;;;9.30;2.60;;;19.90;77.00;;;;;;4992665;28;20487;-39
2022/06/18 04:00:42;;;;;;;3.73;2.53;;;19.90;77.10;;;;;;4993489;28;20462;-36
2022/06/18 04:03:09;;;;;;;3.57;2.80;;;19.90;77.10;;;;;;4993352;28;20538;-37
2022/06/18 04:05:40;;;;;;;3.10;2.67;;;19.90;77.20;;;;;;4977476;28;20471;-38
2022/06/18 04:08:07;;;;;;;3.03;2.57;;;20.00;77.30;;;;;;4993434;28;20436;-38
2022/06/18 04:10:40;;;;;;;2.97;2.30;;;20.00;77.40;;;;;;4993415;28;20471;-38
2022/06/18 04:13:08;;;;;;;2.33;2.13;;;20.00;77.40;;;;;;4993940;28;20459;-38
2022/06/18 04:15:35;;;;;;;3.70;2.60;;;20.00;77.40;;;;;;4981091;28;20798;-39
2022/06/18 04:18:02;;;;;;;4.47;2.17;;;20.10;77.30;;;;;;4990991;28;20435;-46
2022/06/18 04:20:31;;;;;;;4.70;2.40;;;20.10;77.10;;;;;;4993525;28;20494;-39
2022/06/18 04:23:00;;;;;;;4.30;2.43;;;20.20;76.90;;;;;;4992818;28;20477;-36
2022/06/18 04:25:27;;;;;;;3.80;2.40;;;20.20;76.80;;;;;;4992868;28;20466;-37
2022/06/18 04:27:56;;;;;;;5.17;2.33;;;20.30;77.00;;;;;;4992620;28;20459;-38
2022/06/18 04:30:24;;;;;;;3.77;2.50;;;20.30;77.10;;;;;;4993241;28;20447;-39
2022/06/18 04:32:51;;;;;;;2.70;1.80;;;20.30;77.00;;;;;;4980155;28;20471;-38
2022/06/18 04:35:19;;;;;;;2.93;2.43;;;20.30;77.10;;;;;;4989719;28;20459;-38
2022/06/18 04:37:46;;;;;;;3.37;2.63;;;20.30;77.10;;;;;;4993204;28;20467;-38
2022/06/18 04:40:18;;;;;;;2.07;1.90;;;20.40;77.30;;;;;;4992504;28;20498;-36
2022/06/18 04:42:45;;;;;;;2.20;1.93;;;20.40;77.20;;;;;;4984789;28;20763;-39
2022/06/18 04:45:12;;;;;;;2.33;2.13;;;20.50;77.10;;;;;;4985341;28;20459;-37
2022/06/18 04:47:40;;;;;;;3.23;2.43;;;20.50;77.10;;;;;;4992899;28;20482;-37
2022/06/18 04:50:13;;;;;;;2.70;2.47;;;20.50;77.30;;;;;;4993364;28;20455;-38
2022/06/18 04:52:42;;;;;;;6.10;2.57;;;20.60;77.10;;;;;;4993708;28;20443;-38
2022/06/18 04:55:09;;;;;;;6.90;2.40;;;20.60;77.00;;;;;;4993933;28;20969;-39
2022/06/18 04:57:38;;;;;;;2.73;2.30;;;20.60;76.80;;;;;;4993236;28;20450;-39
2022/06/18 05:00:07;;;;;;;2.80;2.27;;;20.70;76.90;;;;;;4992598;28;20486;-41
2022/06/18 05:02:35;;;;;;;3.30;2.40;;;20.70;76.70;;;;;;4993311;28;20455;-37
2022/06/18 05:05:03;;;;;;;4.03;1.93;;;20.80;76.30;;;;;;4992756;28;20463;-38
2022/06/18 05:07:30;;;;;;;2.17;2.00;;;20.80;75.90;;;;;;4993051;28;20455;-37
2022/06/18 05:09:58;;;;;;;3.57;2.07;;;20.90;75.80;;;;;;4993342;28;20459;-42
2022/06/18 05:12:27;;;;;;;6.03;2.67;;;20.90;75.70;;;;;;4992934;28;20467;-38
2022/06/18 05:14:55;;;;;;;2.20;2.00;;;21.00;75.40;;;;;;4992676;28;20474;-38
2022/06/18 05:17:25;;;;;;;3.47;1.63;;;21.10;75.20;;;;;;4992662;28;20470;-37
2022/06/18 05:19:53;;;;;;;2.90;2.07;;;21.20;74.90;;;;;;4992893;28;20561;-37
2022/06/18 05:22:20;;;;;;;4.60;2.10;;;21.30;74.80;;;;;;4992480;28;20486;-39
2022/06/18 05:24:47;;;;;;;3.10;2.60;;;21.30;74.50;;;;;;4985353;28;20447;-37
2022/06/18 05:27:20;;;;;;;4.20;2.73;;;21.30;74.20;;;;;;4988582;28;20479;-37
2022/06/18 05:29:47;;;;;;;2.83;2.60;;;21.40;74.50;;;;;;4993260;28;20455;-35
2022/06/18 05:32:15;;;;;;;2.20;1.70;;;21.50;74.60;;;;;;4993124;28;20443;-39
2022/06/18 05:34:42;;;;;;;3.93;2.10;;;21.50;74.70;;;;;;4993437;28;20471;-40
2022/06/18 05:37:13;;;;;;;4.10;2.17;;;21.60;74.80;;;;;;4996007;28;20431;-42
2022/06/18 05:39:40;;;;;;;3.80;2.70;;;21.70;74.50;;;;;;4995988;28;20566;-35
2022/06/18 05:42:07;;;;;;;3.53;2.10;;;21.70;74.30;;;;;;4995533;28;20442;-38
2022/06/18 05:44:34;;;;;;;3.73;2.03;;;21.80;74.10;;;;;;4996471;28;20465;-52
2022/06/18 05:47:01;;;;;;;4.50;2.03;;;21.90;74.10;;;;;;4996379;28;20809;-50
2022/06/18 05:49:29;;;;;;;2.47;1.87;;;21.90;74.30;;;;;;4995749;28;20438;-46
2022/06/18 05:51:56;;;;;;;3.30;3.00;;;22.10;74.20;;;;;;4995815;28;20494;-41
2022/06/18 05:54:23;;;;;;;3.40;1.70;;;22.10;74.20;;;;;;4995876;28;20473;-38
2022/06/18 05:56:50;;;;;;;2.23;2.00;;;22.20;74.00;;;;;;4994425;28;20471;-39
2022/06/18 05:59:17;;;;;;;2.53;2.00;;;22.30;74.10;;;;;;4994888;28;20479;-39
2022/06/18 06:01:43;;;;;;;2.60;2.23;;;22.40;73.50;;;;;;4994919;28;20459;-37
2022/06/18 06:04:12;;;;;;;2.77;2.30;;;22.40;73.30;;;;;;4995371;28;20484;-37
2022/06/18 06:06:40;;;;;;;1.80;1.70;;;22.50;73.40;;;;;;4995296;28;20435;-37
2022/06/18 06:09:07;;;;;;;1.70;1.50;;;22.60;73.10;;;;;;4995532;28;20423;-38
2022/06/18 06:11:32;;;;;;;1.97;1.70;;;22.70;73.10;;;;;;4996122;28;20447;-36
2022/06/18 06:14:01;;;;;;;2.77;2.50;;;22.80;72.30;;;;;;4995841;28;20494;-37
2022/06/18 06:16:28;;;;;;;2.40;2.20;;;22.90;72.10;;;;;;4995614;28;20268;-37
2022/06/18 06:18:55;;;;;;;3.90;2.40;;;23.10;71.40;;;;;;4995466;28;20481;-39
2022/06/18 06:21:22;;;;;;;2.07;1.90;;;23.10;71.70;;;;;;4995075;28;20443;-43
2022/06/18 06:23:50;;;;;;;6.10;1.93;;;23.20;71.60;;;;;;4995124;28;20485;-38
2022/06/18 06:26:21;;;;;;;4.20;2.60;;;23.30;71.20;;;;;;4995270;28;20507;-46
2022/06/18 06:28:49;;;;;;;4.60;2.07;;;23.40;71.00;;;;;;4994576;28;20450;-37
2022/06/18 06:31:16;;;;;;;2.40;2.20;;;23.50;70.50;;;;;;4991983;28;20439;-37
2022/06/18 06:33:44;;;;;;;2.63;2.43;;;23.60;69.80;;;;;;4994414;28;20554;-36
2022/06/18 06:36:13;;;;;;;2.10;1.90;;;23.70;69.40;;;;;;4985055;28;20485;-40
2022/06/18 06:38:40;;;;;;;6.03;2.43;;;23.80;70.10;;;;;;4993332;28;20466;-45
2022/06/18 06:41:14;;;;;;;4.23;2.57;;;23.90;69.10;;;;;;4983035;28;20495;-40
2022/06/18 06:43:40;;;;;;;3.63;2.20;;;24.00;69.40;;;;;;4993664;28;20451;-41
2022/06/18 06:46:09;;;;;;;3.83;2.60;;;24.10;69.00;;;;;;4993799;28;20482;-39
2022/06/18 06:48:36;;;;;;;3.77;2.00;;;24.20;68.90;;;;;;5061393;28;20486;-39
2022/06/18 06:51:05;;;;;;;2.60;2.40;;;24.30;68.90;;;;;;4994698;28;20466;-36
2022/06/18 06:53:32;;;;;;;4.10;2.57;;;24.40;68.00;;;;;;4994603;28;20477;-36
2022/06/18 06:58:45;;;;;;;6.30;2.53;;;24.60;67.20;;;;;;4994435;28;20438;-37
2022/06/18 07:01:11;;;;;;;5.43;2.20;;;24.80;67.60;;;;;;4992974;28;20454;-39
2022/06/18 07:03:38;;;;;;;3.73;2.30;;;24.90;66.90;;;;;;4987228;28;20479;-39
2022/06/18 07:06:05;;;;;;;2.30;2.00;;;25.10;67.00;;;;;;4983334;28;20541;-39
2022/06/18 07:08:33;;;;;;;3.17;2.50;;;25.30;66.90;;;;;;4982920;28;20463;-38
2022/06/18 07:11:00;;;;;;;3.10;2.80;;;25.50;66.20;;;;;;4984847;28;20519;-40
2022/06/18 07:13:27;;;;;;;4.67;2.87;;;25.60;65.40;;;;;;4992695;28;20455;-39
2022/06/18 07:15:57;;;;;;;5.93;2.87;;;25.70;65.20;;;;;;4987514;28;20453;-38
2022/06/18 07:18:31;;;;;;;3.07;2.30;;;26.20;64.80;;;;;;4990245;28;20461;-38
2022/06/18 07:20:58;;;;;;;4.73;2.70;;;27.10;63.40;;;;;;4991533;28;20466;-39
2022/06/18 07:23:25;;;;;;;3.53;2.57;;;28.60;59.50;;;;;;4982717;28;20542;-39
2022/06/18 07:25:51;;;;;;;4.73;3.13;;;30.10;57.40;;;;;;4982748;28;20471;-39
2022/06/18 07:28:19;;;;;;;3.63;2.87;;;31.70;54.80;;;;;;4978586;28;20469;-39
2022/06/18 07:30:46;;;;;;;3.07;2.73;;;33.00;51.60;;;;;;4984271;28;20467;-41
2022/06/18 07:33:17;;;;;;;2.93;2.70;;;34.00;50.70;;;;;;4984109;28;20424;-41
2022/06/18 07:35:44;;;;;;;3.60;2.73;;;35.10;48.30;;;;;;4986878;28;20527;-46
2022/06/18 07:38:11;;;;;;;2.90;2.70;;;36.00;46.20;;;;;;4984616;28;20475;-43
2022/06/18 07:40:45;;;;;;;3.30;3.00;;;36.50;44.80;;;;;;4984459;28;20990;-44
2022/06/18 07:43:17;;;;;;;6.63;4.13;;;37.20;43.90;;;;;;4983651;28;20553;-40
2022/06/18 07:45:44;;;;;;;3.53;3.23;;;37.60;42.50;;;;;;4983037;28;20505;-45
2022/06/18 07:48:11;;;;;;;5.13;3.13;;;37.90;42.00;;;;;;4984470;28;20479;-46
2022/06/18 07:50:42;;;;;;;4.60;3.73;;;38.40;41.50;;;;;;4983950;28;20519;-41
2022/06/18 07:53:14;;;;;;;3.70;3.40;;;38.60;40.40;;;;;;4992673;28;20482;-44
2022/06/18 07:55:41;;;;;;;4.13;3.30;;;38.70;39.80;;;;;;4992429;28;20530;-46
2022/06/18 07:58:07;;;;;;;3.13;2.90;;;38.70;40.10;;;;;;4993624;28;20509;-46
2022/06/18 08:00:35;;;;;;;3.90;3.23;;;39.00;38.70;;;;;;4993500;28;20510;-43
2022/06/18 08:03:06;;;;;;;3.10;2.77;;;38.80;38.70;;;;;;4988494;28;20479;-45
2022/06/18 08:05:33;;;;;;;3.40;3.03;;;38.80;38.30;;;;;;4978605;28;20507;-46
2022/06/18 08:08:01;;;;;;;3.73;3.43;;;38.90;38.30;;;;;;4981468;28;20946;-43
2022/06/18 08:10:28;;;;;;;3.33;3.03;;;39.10;38.10;;;;;;4982519;28;20432;-43
2022/06/18 08:12:55;;;;;;;6.50;3.23;;;39.20;38.10;;;;;;4984755;28;20443;-44
2022/06/18 08:15:22;;;;;;;4.67;3.73;;;39.30;37.70;;;;;;4983672;28;20475;-41
2022/06/18 08:17:51;;;;;;;6.13;5.60;;;39.50;37.50;;;;;;4980644;28;20465;-41
2022/06/18 08:20:18;;;;;;;5.83;5.13;;;39.90;37.80;;;;;;4980286;28;20471;-44
2022/06/18 08:22:48;;;;;;;3.40;3.10;;;40.00;37.60;;;;;;4978641;28;20918;-42
2022/06/18 08:25:20;;;;;;;4.20;3.90;;;40.20;36.80;;;;;;4982656;28;20469;-41
2022/06/18 08:27:48;;;;;;;4.23;2.93;;;40.20;36.80;;;;;;4985873;28;20439;-42
2022/06/18 08:30:16;;;;;;;3.93;3.53;;;40.40;36.60;;;;;;4984540;28;20931;-40
2022/06/18 08:32:44;;;;;;;3.60;2.80;;;40.50;36.00;;;;;;4979852;28;20463;-42
2022/06/18 08:35:12;;;;;;;7.07;3.40;;;40.60;36.60;;;;;;4978712;28;20827;-44
2022/06/18 08:37:39;;;;;;;5.60;3.50;;;40.30;36.00;;;;;;4979381;28;20535;-44
2022/06/18 08:40:34;;;;;;;3.63;3.27;;;40.20;36.20;;;;;;4976981;28;20497;-41
2022/06/18 08:43:05;;;;;;;3.23;2.97;;;40.40;36.40;;;;;;4980690;28;20931;-41
2022/06/18 08:45:38;;;;;;;2.77;2.50;;;40.50;36.50;;;;;;4984082;28;20483;-43
2022/06/18 08:48:21;;;;;;;5.07;3.63;;;40.80;35.90;;;;;;4984948;28;20448;-42
2022/06/18 08:50:57;;;;;;;5.97;3.47;;;40.90;35.90;;;;;;4981011;28;20445;-43
2022/06/18 08:53:47;;;;;;;5.23;3.77;;;40.50;36.10;;;;;;4988628;28;20435;-41
2022/06/18 08:56:19;;;;;;;3.43;3.13;;;40.70;36.30;;;;;;4984456;28;20436;-45
2022/06/18 08:58:57;;;;;;;3.00;2.80;;;40.70;36.00;;;;;;4982401;28;20454;-43
2022/06/18 09:01:28;;;;;;;2.90;2.70;;;40.60;35.90;;;;;;4982610;28;20492;-42
2022/06/18 09:04:05;;;;;;;3.10;2.90;;;40.60;35.90;;;;;;4983782;28;20561;-43
2022/06/18 09:06:49;;;;;;;5.67;3.50;;;40.40;36.00;;;;;;4980246;28;20467;-44
2022/06/18 09:09:25;;;;;;;3.60;3.20;;;40.40;36.30;;;;;;4983392;28;20535;-40
2022/06/18 09:12:04;;;;;;;3.93;2.83;;;40.50;36.40;;;;;;4977500;28;20510;-40
2022/06/18 09:14:39;;;;;;;5.97;3.47;;;40.50;36.50;;;;;;4979423;28;20545;-41
2022/06/18 09:17:14;;;;;;;3.47;2.97;;;40.50;36.70;;;;;;4976716;28;20445;-41
2022/06/18 09:19:45;;;;;;;4.17;3.17;;;40.40;36.40;;;;;;4979079;28;20581;-47
2022/06/18 09:22:18;;;;;;;5.00;3.83;;;40.20;37.00;;;;;;4982607;28;20435;-49
2022/06/18 09:24:47;;;;;;;3.57;3.27;;;40.20;37.50;;;;;;4982051;28;20475;-43
2022/06/18 09:27:21;;;;;;;6.93;4.13;;;40.10;37.20;;;;;;4986165;28;20447;-43
2022/06/18 09:29:54;;;;;;;6.30;5.17;;;40.10;36.90;;;;;;4983560;28;20475;-47
2022/06/18 09:32:27;;;;;;;5.43;2.60;;;40.30;37.30;;;;;;4979484;28;20458;-44
2022/06/18 09:35:00;;;;;;;3.10;2.87;;;40.50;37.10;;;;;;4980496;28;20491;-46
2022/06/18 09:37:36;;;;;;;5.90;2.63;;;40.60;36.50;;;;;;4980147;28;20443;-40
2022/06/18 09:40:06;;;;;;;2.60;2.40;;;40.10;37.00;;;;;;4977442;28;20562;-42
2022/06/18 09:42:37;;;;;;;3.40;2.90;;;39.80;36.90;;;;;;4978048;28;20922;-40
2022/06/18 09:45:12;;;;;;;7.40;2.80;;;40.00;37.80;;;;;;4978235;28;20561;-41
2022/06/18 09:47:41;;;;;;;5.47;3.20;;;40.00;37.40;;;;;;4977308;28;20439;-41
2022/06/18 09:50:17;;;;;;;2.77;2.50;;;39.70;37.60;;;;;;4977157;28;20475;-42
2022/06/18 09:52:51;;;;;;;3.87;2.40;;;39.50;37.50;;;;;;4978549;28;20991;-45
2022/06/18 09:55:23;;;;;;;2.90;2.60;;;39.50;37.80;;;;;;4975416;28;20475;-41
2022/06/18 09:57:55;;;;;;;4.93;2.73;;;39.50;37.90;;;;;;4977708;28;20431;-40
2022/06/18 10:00:29;;;;;;;2.93;2.70;;;39.30;38.10;;;;;;4978357;28;20798;-41
2022/06/18 10:02:59;;;;;;;6.37;3.23;;;38.90;38.30;;;;;;4981019;28;20494;-40
2022/06/18 10:08:18;;;;;;;6.07;3.60;;;38.60;38.90;;;;;;4972432;28;20414;-41
2022/06/18 10:10:50;;;;;;;4.40;4.00;;;38.30;39.80;;;;;;4989650;28;20534;-39
2022/06/18 10:13:23;;;;;;;3.67;3.03;;;38.30;39.50;;;;;;4987703;28;20415;-39
2022/06/18 10:15:52;;;;;;;4.80;3.30;;;38.30;40.30;;;;;;4975689;28;20543;-40
2022/06/18 10:18:39;;;;;;;5.40;4.10;;;38.40;39.90;;;;;;4986352;28;20465;-42
2022/06/18 10:21:14;;;;;;;3.97;2.97;;;38.30;40.30;;;;;;4985729;28;20588;-40
2022/06/18 10:23:54;;;;;;;4.03;2.50;;;37.90;40.50;;;;;;4982181;28;20497;-39
2022/06/18 10:26:32;;;;;;;6.73;2.57;;;37.60;41.40;;;;;;4993966;28;20450;-39
2022/06/18 10:29:06;;;;;;;3.80;3.50;;;37.60;41.30;;;;;;4992380;28;20525;-40
2022/06/18 10:31:46;;;;;;;7.10;3.23;;;37.60;41.30;;;;;;4991755;28;20531;-40
2022/06/18 10:34:33;;;;;;;6.13;3.10;;;37.60;41.30;;;;;;4990298;28;20491;-40
2022/06/18 10:37:09;;;;;;;4.10;3.10;;;37.40;41.60;;;;;;4989808;28;20439;-41
2022/06/18 10:39:45;;;;;;;3.67;3.07;;;36.70;42.10;;;;;;4991432;28;20430;-39
2022/06/18 10:42:42;;;;;;;3.50;2.90;;;36.30;42.90;;;;;;4994793;28;20434;-40
2022/06/18 10:45:15;;;;;;;3.57;3.27;;;36.20;43.20;;;;;;4991665;28;20439;-41
2022/06/18 10:47:46;;;;;;;3.80;2.90;;;36.20;43.50;;;;;;4995162;28;20487;-43
2022/06/18 10:50:16;;;;;;;4.40;3.00;;;36.10;43.60;;;;;;4988742;28;20454;-39
2022/06/18 10:52:44;;;;;;;6.30;3.50;;;36.00;43.60;;;;;;4986589;28;20461;-39
2022/06/18 10:55:15;;;;;;;4.30;3.50;;;35.90;43.10;;;;;;4981570;28;20465;-41
2022/06/18 10:57:43;;;;;;;3.50;3.20;;;35.40;43.70;;;;;;4990169;28;20428;-40
2022/06/18 11:00:13;;;;;;;4.70;3.37;;;35.40;44.30;;;;;;4990140;28;20516;-41
2022/06/18 11:02:41;;;;;;;2.70;2.50;;;35.30;44.30;;;;;;4992204;28;20496;-39
2022/06/18 11:05:23;;;;;;;9.60;3.60;;;35.30;44.60;;;;;;4991819;28;20458;-42
2022/06/18 11:07:52;;;;;;;7.33;3.07;;;35.40;44.50;;;;;;4990939;28;20458;-40
2022/06/18 11:10:31;;;;;;;3.47;3.13;;;35.50;44.30;;;;;;4993542;28;20530;-40
2022/06/18 11:13:00;;;;;;;4.03;2.73;;;35.50;44.20;;;;;;4989785;28;20498;-41
2022/06/18 11:15:31;;;;;;;4.23;2.83;;;35.60;44.50;;;;;;4990864;28;20485;-41
2022/06/18 11:17:58;;;;;;;4.70;4.10;;;35.70;43.30;;;;;;4991968;28;20538;-39
2022/06/18 11:20:29;;;;;;;3.27;2.97;;;35.60;43.30;;;;;;4995389;28;20510;-46
2022/06/18 11:22:58;;;;;;;4.27;3.03;;;35.50;43.80;;;;;;4995933;28;20434;-41
2022/06/18 11:25:33;;;;;;;5.77;3.37;;;35.50;42.50;;;;;;4995172;28;20475;-47
2022/06/18 11:28:03;;;;;;;5.40;2.90;;;35.40;42.20;;;;;;4995672;28;20431;-41
2022/06/18 11:30:33;;;;;;;3.70;3.27;;;35.30;42.20;;;;;;4994398;28;20443;-47
2022/06/18 11:33:04;;;;;;;4.50;2.80;;;35.30;43.00;;;;;;4976391;28;20435;-43
2022/06/18 11:35:37;;;;;;;3.50;2.60;;;35.20;42.30;;;;;;4987502;28;20436;-41
2022/06/18 11:38:06;;;;;;;3.43;2.90;;;34.90;42.80;;;;;;4988446;28;20442;-41
2022/06/18 11:40:34;;;;;;;6.40;3.27;;;34.80;42.90;;;;;;4987659;28;21082;-41
2022/06/18 11:43:07;;;;;;;3.67;2.67;;;34.70;43.00;;;;;;4976294;28;21002;-40
2022/06/18 11:45:47;;;;;;;3.00;2.70;;;34.60;43.20;;;;;;4976818;28;20471;-41
2022/06/18 11:48:23;;;;;;;4.93;3.63;;;34.40;43.90;;;;;;4981862;28;20443;-40
2022/06/18 11:50:59;;;;;;;4.00;3.30;;;34.50;43.50;;;;;;4977695;28;20423;-41
2022/06/18 11:53:33;;;;;;;4.33;3.17;;;34.40;44.20;;;;;;4978522;28;20445;-41
2022/06/18 11:56:00;;;;;;;5.13;3.30;;;34.30;43.90;;;;;;4981276;28;20505;-40
2022/06/18 11:58:34;;;;;;;6.43;3.57;;;34.30;44.20;;;;;;4980966;28;20433;-40
2022/06/18 12:01:10;;;;;;;3.53;3.00;;;34.30;44.10;;;;;;4980336;28;20578;-41
2022/06/18 12:03:40;;;;;;;5.23;3.53;;;34.20;44.10;;;;;;4978824;28;20883;-37
2022/06/18 12:06:14;;;;;;;9.17;3.20;;;34.00;44.50;;;;;;4976768;28;20481;-41
2022/06/18 12:08:41;;;;;;;6.80;3.00;;;33.90;44.50;;;;;;4979243;28;20431;-40
2022/06/18 12:11:22;;;;;;;6.40;4.00;;;34.00;44.90;;;;;;4981863;28;20465;-40
2022/06/18 12:13:53;;;;;;;7.60;3.40;;;34.10;44.50;;;;;;4981194;28;20497;-41
2022/06/18 12:16:26;;;;;;;5.17;3.53;;;34.30;44.50;;;;;;4981184;28;20458;-41
2022/06/18 12:18:59;;;;;;;6.67;3.47;;;34.30;45.10;;;;;;4980564;28;20447;-39
2022/06/18 12:21:39;;;;;;;7.30;3.80;;;34.40;45.10;;;;;;4980507;28;20574;-42
2022/06/18 12:24:16;;;;;;;8.47;3.60;;;34.40;45.00;;;;;;4980342;28;20451;-40
2022/06/18 12:26:51;;;;;;;7.17;4.00;;;34.40;44.50;;;;;;5000053;28;20846;-38
2022/06/18 12:29:44;;;;;;;10.90;3.97;;;34.30;44.30;;;;;;5075397;28;20536;-39
2022/06/18 12:32:18;;;;;;;6.23;3.33;;;34.30;44.60;;;;;;5075344;28;20514;-40
2022/06/18 12:34:55;;;;;;;12.27;4.37;;;34.30;44.60;;;;;;5078031;28;20423;-41
2022/06/18 12:37:30;;;;;;;11.23;3.63;;;34.10;44.80;;;;;;5080566;28;20474;-38
2022/06/18 12:40:08;;;;;;;9.63;3.50;;;34.10;44.60;;;;;;5085523;28;20474;-40
2022/06/18 12:42:42;;;;;;;7.93;3.50;;;34.10;45.00;;;;;;5079632;28;20588;-41
2022/06/18 12:45:15;;;;;;;8.73;4.00;;;34.30;45.40;;;;;;5081588;28;20470;-40
2022/06/18 12:47:53;;;;;;;11.40;5.03;;;34.40;44.60;;;;;;5082037;28;20506;-40
2022/06/18 12:50:35;;;;;;;9.40;5.00;;;34.40;44.40;;;;;;5076532;28;20422;-41
2022/06/18 12:53:14;;;;;;;4.87;3.70;;;34.40;44.60;;;;;;5077803;28;20791;-40
2022/06/18 12:55:46;;;;;;;6.60;4.30;;;34.30;44.60;;;;;;5079963;28;20942;-40
2022/06/18 12:58:22;;;;;;;10.20;3.50;;;34.30;45.10;;;;;;5082484;28;20539;-42
2022/06/18 13:01:02;;;;;;;6.43;3.90;;;34.40;45.00;;;;;;5083775;28;20576;-39
2022/06/18 13:04:03;;;;;;;7.77;4.73;;;34.40;44.90;;;;;;5076128;28;20470;-40
2022/06/18 13:06:38;;;;;;;8.33;3.90;;;34.30;45.10;;;;;;5070430;28;21045;-42
2022/06/18 13:09:17;;;;;;;9.80;4.03;;;34.20;45.20;;;;;;5078425;28;20468;-39
2022/06/18 13:11:57;;;;;;;4.43;3.43;;;34.20;45.60;;;;;;5080684;28;20426;-40
2022/06/18 13:14:46;;;;;;;9.80;4.20;;;34.20;45.80;;;;;;5083160;28;20430;-39
2022/06/18 13:17:18;;;;;;;4.83;3.60;;;34.20;45.50;;;;;;5082433;28;20430;-41